sensor_id;sensor_type;location;lat;lon;timestamp;P1;durP1;ratioP1;P2;durP2;ratioP2
65757;SDS011;52495;52.208;5.158;2023-04-12T00:02:13;12.77;;;2.90;;
65757;SDS011;52495;52.208;5.158;2023-04-12T00:04:40;8.05;;;2.60;;
65757;SDS011;52495;52.208;5.158;2023-04-12T00:07:06;7.78;;;2.22;;
65757;SDS011;52495;52.208;5.158;2023-04-12T00:09:34;6.47;;;2.35;;
65757;SDS011;52495;52.208;5.158;2023-04-12T00:12:03;12.07;;;2.60;;
65757;SDS011;52495;52.208;5.158;2023-04-12T00:14:31;9.35;;;2.75;;
65757;SDS011;52495;52.208;5.158;2023-04-12T00:16:58;5.90;;;2.42;;
65757;SDS011;52495;52.208;5.158;2023-04-12T00:19:25;5.00;;;2.33;;
65757;SDS011;52495;52.208;5.158;2023-04-12T00:21:55;8.02;;;2.83;;
65757;SDS011;52495;52.208;5.158;2023-04-12T00:24:22;8.57;;;3.03;;
65757;SDS011;52495;52.208;5.158;2023-04-12T00:26:48;7.53;;;2.60;;
65757;SDS011;52495;52.208;5.158;2023-04-12T00:29:16;8.13;;;2.70;;
65757;SDS011;52495;52.208;5.158;2023-04-12T00:31:43;5.18;;;2.30;;
65757;SDS011;52495;52.208;5.158;2023-04-12T00:34:10;5.93;;;1.73;;
65757;SDS011;52495;52.208;5.158;2023-04-12T00:36:37;6.70;;;2.38;;
65757;SDS011;52495;52.208;5.158;2023-04-12T00:39:03;7.03;;;2.30;;
65757;SDS011;52495;52.208;5.158;2023-04-12T00:41:30;7.57;;;2.00;;
65757;SDS011;52495;52.208;5.158;2023-04-12T00:43:57;10.48;;;2.53;;
65757;SDS011;52495;52.208;5.158;2023-04-12T00:46:25;8.05;;;2.00;;
65757;SDS011;52495;52.208;5.158;2023-04-12T00:48:53;6.72;;;2.15;;
65757;SDS011;52495;52.208;5.158;2023-04-12T00:51:22;5.82;;;1.65;;
65757;SDS011;52495;52.208;5.158;2023-04-12T00:53:50;5.82;;;2.17;;
65757;SDS011;52495;52.208;5.158;2023-04-12T00:56:18;3.78;;;1.98;;
65757;SDS011;52495;52.208;5.158;2023-04-12T00:58:48;4.55;;;2.15;;
65757;SDS011;52495;52.208;5.158;2023-04-12T01:01:15;5.05;;;1.70;;
65757;SDS011;52495;52.208;5.158;2023-04-12T01:03:44;6.03;;;1.88;;
65757;SDS011;52495;52.208;5.158;2023-04-12T01:06:12;2.22;;;1.45;;
65757;SDS011;52495;52.208;5.158;2023-04-12T01:08:49;4.43;;;1.40;;
65757;SDS011;52495;52.208;5.158;2023-04-12T01:11:25;3.08;;;1.48;;
65757;SDS011;52495;52.208;5.158;2023-04-12T01:14:02;7.32;;;2.05;;
65757;SDS011;52495;52.208;5.158;2023-04-12T01:16:34;4.85;;;1.73;;
65757;SDS011;52495;52.208;5.158;2023-04-12T01:19:11;3.80;;;1.40;;
65757;SDS011;52495;52.208;5.158;2023-04-12T01:22:00;5.88;;;1.65;;
65757;SDS011;52495;52.208;5.158;2023-04-12T01:24:41;3.23;;;1.47;;
65757;SDS011;52495;52.208;5.158;2023-04-12T01:27:33;5.10;;;1.77;;
65757;SDS011;52495;52.208;5.158;2023-04-12T01:30:07;4.75;;;1.83;;
65757;SDS011;52495;52.208;5.158;2023-04-12T01:32:39;4.38;;;1.83;;
65757;SDS011;52495;52.208;5.158;2023-04-12T01:35:09;4.32;;;1.45;;
65757;SDS011;52495;52.208;5.158;2023-04-12T01:37:37;4.95;;;1.90;;
65757;SDS011;52495;52.208;5.158;2023-04-12T01:40:05;6.28;;;1.52;;
65757;SDS011;52495;52.208;5.158;2023-04-12T01:42:34;4.35;;;1.60;;
65757;SDS011;52495;52.208;5.158;2023-04-12T01:45:01;2.42;;;1.30;;
65757;SDS011;52495;52.208;5.158;2023-04-12T01:47:28;3.45;;;1.42;;
65757;SDS011;52495;52.208;5.158;2023-04-12T01:49:58;2.38;;;1.25;;
65757;SDS011;52495;52.208;5.158;2023-04-12T01:52:35;7.68;;;1.90;;
65757;SDS011;52495;52.208;5.158;2023-04-12T01:55:06;4.32;;;1.92;;
65757;SDS011;52495;52.208;5.158;2023-04-12T01:57:37;4.53;;;1.90;;
65757;SDS011;52495;52.208;5.158;2023-04-12T02:00:06;6.10;;;1.88;;
65757;SDS011;52495;52.208;5.158;2023-04-12T02:02:38;3.92;;;1.88;;
65757;SDS011;52495;52.208;5.158;2023-04-12T02:05:06;2.88;;;1.15;;
65757;SDS011;52495;52.208;5.158;2023-04-12T02:07:34;5.68;;;1.65;;
65757;SDS011;52495;52.208;5.158;2023-04-12T02:10:02;4.63;;;1.70;;
65757;SDS011;52495;52.208;5.158;2023-04-12T02:12:29;6.93;;;2.28;;
65757;SDS011;52495;52.208;5.158;2023-04-12T02:14:57;3.97;;;1.63;;
65757;SDS011;52495;52.208;5.158;2023-04-12T02:17:24;3.58;;;1.35;;
65757;SDS011;52495;52.208;5.158;2023-04-12T02:19:51;6.05;;;2.05;;
65757;SDS011;52495;52.208;5.158;2023-04-12T02:22:19;4.75;;;1.50;;
65757;SDS011;52495;52.208;5.158;2023-04-12T02:24:46;4.07;;;1.55;;
65757;SDS011;52495;52.208;5.158;2023-04-12T02:27:12;5.68;;;1.45;;
65757;SDS011;52495;52.208;5.158;2023-04-12T02:29:42;3.92;;;1.40;;
65757;SDS011;52495;52.208;5.158;2023-04-12T02:32:11;3.80;;;1.52;;
65757;SDS011;52495;52.208;5.158;2023-04-12T02:34:38;3.72;;;1.48;;
65757;SDS011;52495;52.208;5.158;2023-04-12T02:37:14;6.00;;;2.17;;
65757;SDS011;52495;52.208;5.158;2023-04-12T02:39:42;2.42;;;1.30;;
65757;SDS011;52495;52.208;5.158;2023-04-12T02:42:09;3.95;;;1.45;;
65757;SDS011;52495;52.208;5.158;2023-04-12T02:44:37;2.42;;;1.25;;
65757;SDS011;52495;52.208;5.158;2023-04-12T02:47:12;6.30;;;1.58;;
65757;SDS011;52495;52.208;5.158;2023-04-12T02:49:43;3.60;;;1.60;;
65757;SDS011;52495;52.208;5.158;2023-04-12T02:52:12;5.78;;;2.00;;
65757;SDS011;52495;52.208;5.158;2023-04-12T02:54:50;3.78;;;1.50;;
65757;SDS011;52495;52.208;5.158;2023-04-12T02:57:17;7.13;;;2.42;;
65757;SDS011;52495;52.208;5.158;2023-04-12T02:59:45;3.88;;;1.50;;
65757;SDS011;52495;52.208;5.158;2023-04-12T03:02:34;4.82;;;1.83;;
65757;SDS011;52495;52.208;5.158;2023-04-12T03:05:04;4.88;;;2.08;;
65757;SDS011;52495;52.208;5.158;2023-04-12T03:07:39;4.05;;;1.70;;
65757;SDS011;52495;52.208;5.158;2023-04-12T03:10:07;6.25;;;2.25;;
65757;SDS011;52495;52.208;5.158;2023-04-12T03:12:40;4.70;;;1.60;;
65757;SDS011;52495;52.208;5.158;2023-04-12T03:15:13;4.43;;;2.10;;
65757;SDS011;52495;52.208;5.158;2023-04-12T03:17:45;4.53;;;1.90;;
65757;SDS011;52495;52.208;5.158;2023-04-12T03:20:13;6.95;;;1.70;;
65757;SDS011;52495;52.208;5.158;2023-04-12T03:22:47;6.35;;;2.00;;
65757;SDS011;52495;52.208;5.158;2023-04-12T03:25:14;7.32;;;2.33;;
65757;SDS011;52495;52.208;5.158;2023-04-12T03:27:47;5.80;;;1.83;;
65757;SDS011;52495;52.208;5.158;2023-04-12T03:30:18;5.30;;;1.77;;
65757;SDS011;52495;52.208;5.158;2023-04-12T03:32:47;5.20;;;1.80;;
65757;SDS011;52495;52.208;5.158;2023-04-12T03:35:13;6.15;;;1.90;;
65757;SDS011;52495;52.208;5.158;2023-04-12T03:37:42;4.95;;;2.78;;
65757;SDS011;52495;52.208;5.158;2023-04-12T03:40:10;5.20;;;2.08;;
65757;SDS011;52495;52.208;5.158;2023-04-12T03:42:42;5.53;;;1.80;;
65757;SDS011;52495;52.208;5.158;2023-04-12T03:45:11;4.32;;;2.35;;
65757;SDS011;52495;52.208;5.158;2023-04-12T03:47:41;2.28;;;1.52;;
65757;SDS011;52495;52.208;5.158;2023-04-12T03:50:10;3.40;;;1.80;;
65757;SDS011;52495;52.208;5.158;2023-04-12T03:52:37;4.93;;;2.13;;
65757;SDS011;52495;52.208;5.158;2023-04-12T03:55:05;5.28;;;1.85;;
65757;SDS011;52495;52.208;5.158;2023-04-12T03:57:34;9.20;;;2.40;;
65757;SDS011;52495;52.208;5.158;2023-04-12T04:00:02;3.90;;;1.50;;
65757;SDS011;52495;52.208;5.158;2023-04-12T04:02:43;5.53;;;1.58;;
65757;SDS011;52495;52.208;5.158;2023-04-12T04:05:14;1.98;;;1.55;;
65757;SDS011;52495;52.208;5.158;2023-04-12T04:07:43;3.92;;;1.70;;
65757;SDS011;52495;52.208;5.158;2023-04-12T04:10:10;3.05;;;1.73;;
65757;SDS011;52495;52.208;5.158;2023-04-12T04:12:39;3.13;;;1.55;;
65757;SDS011;52495;52.208;5.158;2023-04-12T04:15:10;7.65;;;1.80;;
65757;SDS011;52495;52.208;5.158;2023-04-12T04:17:38;4.05;;;1.60;;
65757;SDS011;52495;52.208;5.158;2023-04-12T04:20:07;2.75;;;1.67;;
65757;SDS011;52495;52.208;5.158;2023-04-12T04:22:42;4.13;;;1.63;;
65757;SDS011;52495;52.208;5.158;2023-04-12T04:25:13;2.63;;;1.52;;
65757;SDS011;52495;52.208;5.158;2023-04-12T04:27:43;8.98;;;2.25;;
65757;SDS011;52495;52.208;5.158;2023-04-12T04:30:11;3.75;;;1.40;;
65757;SDS011;52495;52.208;5.158;2023-04-12T04:32:43;3.80;;;1.70;;
65757;SDS011;52495;52.208;5.158;2023-04-12T04:35:10;3.60;;;1.75;;
65757;SDS011;52495;52.208;5.158;2023-04-12T04:38:02;5.38;;;1.60;;
65757;SDS011;52495;52.208;5.158;2023-04-12T04:40:30;3.10;;;1.48;;
65757;SDS011;52495;52.208;5.158;2023-04-12T04:42:58;2.72;;;1.40;;
65757;SDS011;52495;52.208;5.158;2023-04-12T04:45:29;3.92;;;1.75;;
65757;SDS011;52495;52.208;5.158;2023-04-12T04:47:57;3.13;;;1.48;;
65757;SDS011;52495;52.208;5.158;2023-04-12T04:50:23;1.95;;;1.40;;
65757;SDS011;52495;52.208;5.158;2023-04-12T04:52:52;3.20;;;1.60;;
65757;SDS011;52495;52.208;5.158;2023-04-12T04:55:21;4.68;;;1.85;;
65757;SDS011;52495;52.208;5.158;2023-04-12T04:57:49;3.78;;;1.58;;
65757;SDS011;52495;52.208;5.158;2023-04-12T05:00:17;2.90;;;1.50;;
65757;SDS011;52495;52.208;5.158;2023-04-12T05:02:52;2.47;;;1.52;;
65757;SDS011;52495;52.208;5.158;2023-04-12T05:05:27;3.72;;;1.50;;
65757;SDS011;52495;52.208;5.158;2023-04-12T05:08:01;2.65;;;1.30;;
65757;SDS011;52495;52.208;5.158;2023-04-12T05:10:32;4.35;;;1.50;;
65757;SDS011;52495;52.208;5.158;2023-04-12T05:13:01;4.18;;;1.73;;
65757;SDS011;52495;52.208;5.158;2023-04-12T05:15:29;3.95;;;1.50;;
65757;SDS011;52495;52.208;5.158;2023-04-12T05:17:56;3.20;;;1.60;;
65757;SDS011;52495;52.208;5.158;2023-04-12T05:20:23;5.25;;;2.00;;
65757;SDS011;52495;52.208;5.158;2023-04-12T05:22:50;4.22;;;1.65;;
65757;SDS011;52495;52.208;5.158;2023-04-12T05:25:17;3.03;;;2.15;;
65757;SDS011;52495;52.208;5.158;2023-04-12T05:27:53;3.72;;;1.98;;
65757;SDS011;52495;52.208;5.158;2023-04-12T05:30:20;3.88;;;1.83;;
65757;SDS011;52495;52.208;5.158;2023-04-12T05:32:48;3.03;;;1.90;;
65757;SDS011;52495;52.208;5.158;2023-04-12T05:35:16;3.38;;;2.10;;
65757;SDS011;52495;52.208;5.158;2023-04-12T05:37:44;2.53;;;1.85;;
65757;SDS011;52495;52.208;5.158;2023-04-12T05:40:12;3.67;;;2.03;;
65757;SDS011;52495;52.208;5.158;2023-04-12T05:42:39;2.85;;;2.10;;
65757;SDS011;52495;52.208;5.158;2023-04-12T05:45:08;3.53;;;2.60;;
65757;SDS011;52495;52.208;5.158;2023-04-12T05:47:36;4.57;;;2.45;;
65757;SDS011;52495;52.208;5.158;2023-04-12T05:50:03;5.53;;;2.63;;
65757;SDS011;52495;52.208;5.158;2023-04-12T05:52:31;3.53;;;2.22;;
65757;SDS011;52495;52.208;5.158;2023-04-12T05:54:59;4.03;;;2.70;;
65757;SDS011;52495;52.208;5.158;2023-04-12T05:57:26;3.13;;;2.40;;
65757;SDS011;52495;52.208;5.158;2023-04-12T05:59:53;3.60;;;2.40;;
65757;SDS011;52495;52.208;5.158;2023-04-12T06:02:22;3.70;;;2.58;;
65757;SDS011;52495;52.208;5.158;2023-04-12T06:04:50;7.15;;;2.88;;
65757;SDS011;52495;52.208;5.158;2023-04-12T06:07:18;5.70;;;3.08;;
65757;SDS011;52495;52.208;5.158;2023-04-12T06:09:45;6.90;;;2.90;;
65757;SDS011;52495;52.208;5.158;2023-04-12T06:12:15;5.20;;;2.60;;
65757;SDS011;52495;52.208;5.158;2023-04-12T06:14:43;4.45;;;2.53;;
65757;SDS011;52495;52.208;5.158;2023-04-12T06:17:10;4.40;;;2.70;;
65757;SDS011;52495;52.208;5.158;2023-04-12T06:19:39;4.50;;;3.55;;
65757;SDS011;52495;52.208;5.158;2023-04-12T06:22:08;6.15;;;3.28;;
65757;SDS011;52495;52.208;5.158;2023-04-12T06:24:36;6.82;;;3.88;;
65757;SDS011;52495;52.208;5.158;2023-04-12T06:27:03;7.72;;;3.72;;
65757;SDS011;52495;52.208;5.158;2023-04-12T06:29:30;6.50;;;3.20;;
65757;SDS011;52495;52.208;5.158;2023-04-12T06:31:58;7.28;;;3.30;;
65757;SDS011;52495;52.208;5.158;2023-04-12T06:34:25;7.53;;;3.40;;
65757;SDS011;52495;52.208;5.158;2023-04-12T06:36:57;5.93;;;3.42;;
65757;SDS011;52495;52.208;5.158;2023-04-12T06:39:24;5.35;;;3.50;;
65757;SDS011;52495;52.208;5.158;2023-04-12T06:41:51;5.95;;;3.70;;
65757;SDS011;52495;52.208;5.158;2023-04-12T06:44:19;5.10;;;3.53;;
65757;SDS011;52495;52.208;5.158;2023-04-12T06:46:46;8.80;;;4.07;;
65757;SDS011;52495;52.208;5.158;2023-04-12T06:49:13;5.95;;;3.47;;
65757;SDS011;52495;52.208;5.158;2023-04-12T06:51:40;8.45;;;4.10;;
65757;SDS011;52495;52.208;5.158;2023-04-12T06:54:08;6.57;;;3.80;;
65757;SDS011;52495;52.208;5.158;2023-04-12T06:56:35;8.95;;;4.00;;
65757;SDS011;52495;52.208;5.158;2023-04-12T06:59:03;6.28;;;4.00;;
65757;SDS011;52495;52.208;5.158;2023-04-12T07:01:30;8.05;;;4.15;;
65757;SDS011;52495;52.208;5.158;2023-04-12T07:03:58;7.93;;;4.35;;
65757;SDS011;52495;52.208;5.158;2023-04-12T07:06:26;9.20;;;3.83;;
65757;SDS011;52495;52.208;5.158;2023-04-12T07:08:53;11.38;;;4.68;;
65757;SDS011;52495;52.208;5.158;2023-04-12T07:11:21;9.90;;;4.65;;
65757;SDS011;52495;52.208;5.158;2023-04-12T07:13:48;9.63;;;4.57;;
65757;SDS011;52495;52.208;5.158;2023-04-12T07:16:15;11.68;;;4.47;;
65757;SDS011;52495;52.208;5.158;2023-04-12T07:18:42;9.00;;;4.90;;
65757;SDS011;52495;52.208;5.158;2023-04-12T07:21:09;10.60;;;4.57;;
65757;SDS011;52495;52.208;5.158;2023-04-12T07:23:38;7.45;;;4.45;;
65757;SDS011;52495;52.208;5.158;2023-04-12T07:26:06;8.82;;;4.60;;
65757;SDS011;52495;52.208;5.158;2023-04-12T07:28:34;10.70;;;4.53;;
65757;SDS011;52495;52.208;5.158;2023-04-12T07:31:03;12.15;;;5.50;;
65757;SDS011;52495;52.208;5.158;2023-04-12T07:33:31;8.07;;;4.85;;
65757;SDS011;52495;52.208;5.158;2023-04-12T07:36:00;11.20;;;4.57;;
65757;SDS011;52495;52.208;5.158;2023-04-12T07:38:27;8.40;;;4.85;;
65757;SDS011;52495;52.208;5.158;2023-04-12T07:40:54;10.10;;;5.22;;
65757;SDS011;52495;52.208;5.158;2023-04-12T07:43:21;14.48;;;5.43;;
65757;SDS011;52495;52.208;5.158;2023-04-12T07:45:49;13.90;;;5.30;;
65757;SDS011;52495;52.208;5.158;2023-04-12T07:48:17;14.50;;;5.50;;
65757;SDS011;52495;52.208;5.158;2023-04-12T07:50:43;9.65;;;4.68;;
65757;SDS011;52495;52.208;5.158;2023-04-12T07:53:17;11.93;;;5.40;;
65757;SDS011;52495;52.208;5.158;2023-04-12T07:55:45;13.43;;;5.25;;
65757;SDS011;52495;52.208;5.158;2023-04-12T07:58:12;13.52;;;4.95;;
65757;SDS011;52495;52.208;5.158;2023-04-12T08:00:39;12.60;;;5.03;;
65757;SDS011;52495;52.208;5.158;2023-04-12T08:03:08;14.15;;;5.10;;
65757;SDS011;52495;52.208;5.158;2023-04-12T08:05:40;21.40;;;4.80;;
65757;SDS011;52495;52.208;5.158;2023-04-12T08:08:07;14.93;;;5.35;;
65757;SDS011;52495;52.208;5.158;2023-04-12T08:10:34;15.40;;;4.47;;
65757;SDS011;52495;52.208;5.158;2023-04-12T08:13:02;18.80;;;5.00;;
65757;SDS011;52495;52.208;5.158;2023-04-12T08:15:30;17.60;;;4.07;;
65757;SDS011;52495;52.208;5.158;2023-04-12T08:17:57;17.98;;;4.22;;
65757;SDS011;52495;52.208;5.158;2023-04-12T08:20:25;16.17;;;4.60;;
65757;SDS011;52495;52.208;5.158;2023-04-12T08:22:51;13.48;;;3.90;;
65757;SDS011;52495;52.208;5.158;2023-04-12T08:25:18;13.07;;;4.18;;
65757;SDS011;52495;52.208;5.158;2023-04-12T08:27:47;15.32;;;3.50;;
65757;SDS011;52495;52.208;5.158;2023-04-12T08:30:14;19.63;;;3.80;;
65757;SDS011;52495;52.208;5.158;2023-04-12T08:32:42;16.52;;;4.35;;
65757;SDS011;52495;52.208;5.158;2023-04-12T08:35:09;20.63;;;4.50;;
65757;SDS011;52495;52.208;5.158;2023-04-12T08:37:37;14.45;;;4.20;;
65757;SDS011;52495;52.208;5.158;2023-04-12T08:40:05;19.55;;;3.83;;
65757;SDS011;52495;52.208;5.158;2023-04-12T08:42:33;25.00;;;3.88;;
65757;SDS011;52495;52.208;5.158;2023-04-12T08:45:05;20.02;;;3.92;;
65757;SDS011;52495;52.208;5.158;2023-04-12T08:47:32;13.73;;;3.67;;
65757;SDS011;52495;52.208;5.158;2023-04-12T08:50:02;14.82;;;3.90;;
65757;SDS011;52495;52.208;5.158;2023-04-12T08:52:33;16.45;;;3.13;;
65757;SDS011;52495;52.208;5.158;2023-04-12T08:55:03;18.08;;;3.75;;
65757;SDS011;52495;52.208;5.158;2023-04-12T08:57:30;22.23;;;3.88;;
65757;SDS011;52495;52.208;5.158;2023-04-12T08:59:58;22.02;;;4.00;;
65757;SDS011;52495;52.208;5.158;2023-04-12T09:02:26;16.70;;;3.33;;
65757;SDS011;52495;52.208;5.158;2023-04-12T09:04:54;11.88;;;3.15;;
65757;SDS011;52495;52.208;5.158;2023-04-12T09:07:22;27.02;;;3.72;;
65757;SDS011;52495;52.208;5.158;2023-04-12T09:09:52;16.02;;;3.60;;
65757;SDS011;52495;52.208;5.158;2023-04-12T09:12:22;16.50;;;3.30;;
65757;SDS011;52495;52.208;5.158;2023-04-12T09:15:03;18.52;;;4.25;;
65757;SDS011;52495;52.208;5.158;2023-04-12T09:17:34;19.23;;;4.32;;
65757;SDS011;52495;52.208;5.158;2023-04-12T09:20:09;20.88;;;3.05;;
65757;SDS011;52495;52.208;5.158;2023-04-12T09:22:49;17.33;;;3.00;;
65757;SDS011;52495;52.208;5.158;2023-04-12T09:25:17;16.05;;;3.75;;
65757;SDS011;52495;52.208;5.158;2023-04-12T09:27:45;17.05;;;3.63;;
65757;SDS011;52495;52.208;5.158;2023-04-12T09:30:14;17.85;;;3.83;;
65757;SDS011;52495;52.208;5.158;2023-04-12T09:32:42;18.45;;;3.33;;
65757;SDS011;52495;52.208;5.158;2023-04-12T09:35:09;19.88;;;3.28;;
65757;SDS011;52495;52.208;5.158;2023-04-12T09:37:35;19.95;;;3.67;;
65757;SDS011;52495;52.208;5.158;2023-04-12T09:40:03;20.73;;;4.65;;
65757;SDS011;52495;52.208;5.158;2023-04-12T09:42:32;13.77;;;3.22;;
65757;SDS011;52495;52.208;5.158;2023-04-12T09:45:03;14.77;;;3.55;;
65757;SDS011;52495;52.208;5.158;2023-04-12T09:47:45;17.17;;;3.17;;
65757;SDS011;52495;52.208;5.158;2023-04-12T09:50:18;14.80;;;3.05;;
65757;SDS011;52495;52.208;5.158;2023-04-12T09:52:46;19.50;;;3.47;;
65757;SDS011;52495;52.208;5.158;2023-04-12T09:55:14;14.07;;;3.58;;
65757;SDS011;52495;52.208;5.158;2023-04-12T09:57:41;17.05;;;3.78;;
65757;SDS011;52495;52.208;5.158;2023-04-12T10:00:11;24.52;;;4.07;;
65757;SDS011;52495;52.208;5.158;2023-04-12T10:02:41;22.33;;;3.53;;
65757;SDS011;52495;52.208;5.158;2023-04-12T10:05:09;18.08;;;3.53;;
65757;SDS011;52495;52.208;5.158;2023-04-12T10:07:38;16.20;;;3.28;;
65757;SDS011;52495;52.208;5.158;2023-04-12T10:10:06;15.55;;;3.30;;
65757;SDS011;52495;52.208;5.158;2023-04-12T10:12:34;13.82;;;2.97;;
65757;SDS011;52495;52.208;5.158;2023-04-12T10:15:02;14.23;;;3.15;;
65757;SDS011;52495;52.208;5.158;2023-04-12T10:17:32;13.90;;;3.20;;
65757;SDS011;52495;52.208;5.158;2023-04-12T10:20:01;13.82;;;3.28;;
65757;SDS011;52495;52.208;5.158;2023-04-12T10:22:29;14.32;;;3.47;;
65757;SDS011;52495;52.208;5.158;2023-04-12T10:24:56;18.48;;;3.30;;
65757;SDS011;52495;52.208;5.158;2023-04-12T10:27:25;15.48;;;3.55;;
65757;SDS011;52495;52.208;5.158;2023-04-12T10:29:52;14.20;;;3.58;;
65757;SDS011;52495;52.208;5.158;2023-04-12T10:32:20;17.65;;;3.50;;
65757;SDS011;52495;52.208;5.158;2023-04-12T10:34:52;15.32;;;2.97;;
65757;SDS011;52495;52.208;5.158;2023-04-12T10:37:22;16.40;;;3.00;;
65757;SDS011;52495;52.208;5.158;2023-04-12T10:40:24;14.25;;;3.17;;
65757;SDS011;52495;52.208;5.158;2023-04-12T10:45:48;16.27;;;3.00;;
65757;SDS011;52495;52.208;5.158;2023-04-12T10:48:27;14.57;;;2.80;;
65757;SDS011;52495;52.208;5.158;2023-04-12T10:53:49;22.08;;;3.50;;
65757;SDS011;52495;52.208;5.158;2023-04-12T10:56:36;14.93;;;2.90;;
65757;SDS011;52495;52.208;5.158;2023-04-12T10:59:04;15.50;;;3.25;;
65757;SDS011;52495;52.208;5.158;2023-04-12T11:01:37;15.25;;;2.88;;
65757;SDS011;52495;52.208;5.158;2023-04-12T11:04:12;13.70;;;2.90;;
65757;SDS011;52495;52.208;5.158;2023-04-12T11:06:49;10.88;;;2.67;;
65757;SDS011;52495;52.208;5.158;2023-04-12T11:09:48;12.77;;;2.63;;
65757;SDS011;52495;52.208;5.158;2023-04-12T11:12:22;16.50;;;3.00;;
65757;SDS011;52495;52.208;5.158;2023-04-12T11:14:54;11.27;;;2.80;;
65757;SDS011;52495;52.208;5.158;2023-04-12T11:17:31;11.18;;;3.28;;
65757;SDS011;52495;52.208;5.158;2023-04-12T11:19:58;13.13;;;2.80;;
65757;SDS011;52495;52.208;5.158;2023-04-12T11:22:27;15.18;;;4.43;;
65757;SDS011;52495;52.208;5.158;2023-04-12T11:24:56;15.48;;;3.38;;
65757;SDS011;52495;52.208;5.158;2023-04-12T11:27:24;10.75;;;3.03;;
65757;SDS011;52495;52.208;5.158;2023-04-12T11:29:54;15.13;;;3.10;;
65757;SDS011;52495;52.208;5.158;2023-04-12T11:32:23;10.80;;;2.72;;
65757;SDS011;52495;52.208;5.158;2023-04-12T11:34:52;18.75;;;3.10;;
65757;SDS011;52495;52.208;5.158;2023-04-12T11:37:19;11.30;;;2.67;;
65757;SDS011;52495;52.208;5.158;2023-04-12T11:39:46;10.63;;;2.10;;
65757;SDS011;52495;52.208;5.158;2023-04-12T11:42:17;10.18;;;2.63;;
65757;SDS011;52495;52.208;5.158;2023-04-12T11:44:45;10.30;;;2.60;;
65757;SDS011;52495;52.208;5.158;2023-04-12T11:47:16;14.20;;;2.90;;
65757;SDS011;52495;52.208;5.158;2023-04-12T11:49:45;12.67;;;3.20;;
65757;SDS011;52495;52.208;5.158;2023-04-12T11:52:13;12.68;;;2.70;;
65757;SDS011;52495;52.208;5.158;2023-04-12T11:54:42;11.90;;;3.13;;
65757;SDS011;52495;52.208;5.158;2023-04-12T11:57:13;10.48;;;2.92;;
65757;SDS011;52495;52.208;5.158;2023-04-12T11:59:43;11.33;;;2.60;;
65757;SDS011;52495;52.208;5.158;2023-04-12T12:02:11;12.73;;;2.65;;
65757;SDS011;52495;52.208;5.158;2023-04-12T12:04:39;12.70;;;2.47;;
65757;SDS011;52495;52.208;5.158;2023-04-12T12:07:07;11.10;;;2.80;;
65757;SDS011;52495;52.208;5.158;2023-04-12T12:09:34;9.80;;;2.25;;
65757;SDS011;52495;52.208;5.158;2023-04-12T12:12:01;11.75;;;2.15;;
65757;SDS011;52495;52.208;5.158;2023-04-12T12:14:32;10.23;;;2.05;;
65757;SDS011;52495;52.208;5.158;2023-04-12T12:17:08;7.07;;;1.88;;
65757;SDS011;52495;52.208;5.158;2023-04-12T12:19:37;10.38;;;2.22;;
65757;SDS011;52495;52.208;5.158;2023-04-12T12:22:06;12.75;;;2.00;;
65757;SDS011;52495;52.208;5.158;2023-04-12T12:24:37;6.30;;;1.75;;
65757;SDS011;52495;52.208;5.158;2023-04-12T12:27:04;7.78;;;1.75;;
65757;SDS011;52495;52.208;5.158;2023-04-12T12:29:34;8.80;;;1.92;;
65757;SDS011;52495;52.208;5.158;2023-04-12T12:32:08;6.38;;;1.77;;
65757;SDS011;52495;52.208;5.158;2023-04-12T12:34:36;5.53;;;1.55;;
65757;SDS011;52495;52.208;5.158;2023-04-12T12:37:06;8.38;;;2.10;;
65757;SDS011;52495;52.208;5.158;2023-04-12T12:39:34;9.65;;;2.08;;
65757;SDS011;52495;52.208;5.158;2023-04-12T12:42:01;8.82;;;2.20;;
65757;SDS011;52495;52.208;5.158;2023-04-12T12:44:29;6.97;;;1.90;;
65757;SDS011;52495;52.208;5.158;2023-04-12T12:46:57;6.90;;;1.35;;
65757;SDS011;52495;52.208;5.158;2023-04-12T12:49:26;4.70;;;1.25;;
65757;SDS011;52495;52.208;5.158;2023-04-12T12:51:53;6.65;;;1.50;;
65757;SDS011;52495;52.208;5.158;2023-04-12T12:54:21;3.20;;;1.15;;
65757;SDS011;52495;52.208;5.158;2023-04-12T12:56:48;5.43;;;1.63;;
65757;SDS011;52495;52.208;5.158;2023-04-12T12:59:15;9.07;;;1.33;;
65757;SDS011;52495;52.208;5.158;2023-04-12T13:01:42;7.10;;;1.80;;
65757;SDS011;52495;52.208;5.158;2023-04-12T13:04:08;6.07;;;1.45;;
65757;SDS011;52495;52.208;5.158;2023-04-12T13:06:36;2.95;;;1.23;;
65757;SDS011;52495;52.208;5.158;2023-04-12T13:09:03;4.43;;;1.30;;
65757;SDS011;52495;52.208;5.158;2023-04-12T13:11:30;4.80;;;1.25;;
65757;SDS011;52495;52.208;5.158;2023-04-12T13:13:57;5.97;;;1.17;;
65757;SDS011;52495;52.208;5.158;2023-04-12T13:16:24;3.88;;;1.30;;
65757;SDS011;52495;52.208;5.158;2023-04-12T13:18:50;3.67;;;1.00;;
65757;SDS011;52495;52.208;5.158;2023-04-12T13:21:17;5.22;;;1.00;;
65757;SDS011;52495;52.208;5.158;2023-04-12T13:23:45;4.22;;;1.25;;
65757;SDS011;52495;52.208;5.158;2023-04-12T13:26:12;4.95;;;1.23;;
65757;SDS011;52495;52.208;5.158;2023-04-12T13:28:39;5.00;;;1.05;;
65757;SDS011;52495;52.208;5.158;2023-04-12T13:31:05;7.13;;;1.15;;
65757;SDS011;52495;52.208;5.158;2023-04-12T13:33:32;4.68;;;0.95;;
65757;SDS011;52495;52.208;5.158;2023-04-12T13:35:59;4.60;;;1.17;;
65757;SDS011;52495;52.208;5.158;2023-04-12T13:38:26;6.75;;;1.30;;
65757;SDS011;52495;52.208;5.158;2023-04-12T13:40:54;5.80;;;1.45;;
65757;SDS011;52495;52.208;5.158;2023-04-12T13:43:21;4.15;;;1.40;;
65757;SDS011;52495;52.208;5.158;2023-04-12T13:45:47;7.15;;;1.33;;
65757;SDS011;52495;52.208;5.158;2023-04-12T13:48:14;5.97;;;1.30;;
65757;SDS011;52495;52.208;5.158;2023-04-12T13:50:41;5.63;;;1.27;;
65757;SDS011;52495;52.208;5.158;2023-04-12T13:53:08;7.13;;;1.67;;
65757;SDS011;52495;52.208;5.158;2023-04-12T13:55:35;4.20;;;1.30;;
65757;SDS011;52495;52.208;5.158;2023-04-12T13:58:03;5.32;;;1.50;;
65757;SDS011;52495;52.208;5.158;2023-04-12T14:00:30;3.92;;;1.60;;
65757;SDS011;52495;52.208;5.158;2023-04-12T14:02:56;4.97;;;1.25;;
65757;SDS011;52495;52.208;5.158;2023-04-12T14:05:23;6.85;;;1.85;;
65757;SDS011;52495;52.208;5.158;2023-04-12T14:07:50;6.63;;;1.20;;
65757;SDS011;52495;52.208;5.158;2023-04-12T14:10:17;5.38;;;1.60;;
65757;SDS011;52495;52.208;5.158;2023-04-12T14:12:44;4.93;;;1.40;;
65757;SDS011;52495;52.208;5.158;2023-04-12T14:15:12;4.95;;;1.40;;
65757;SDS011;52495;52.208;5.158;2023-04-12T14:17:39;5.70;;;1.33;;
65757;SDS011;52495;52.208;5.158;2023-04-12T14:20:07;5.57;;;1.40;;
65757;SDS011;52495;52.208;5.158;2023-04-12T14:22:35;5.03;;;1.25;;
65757;SDS011;52495;52.208;5.158;2023-04-12T14:25:02;4.50;;;1.30;;
65757;SDS011;52495;52.208;5.158;2023-04-12T14:27:29;5.25;;;1.58;;
65757;SDS011;52495;52.208;5.158;2023-04-12T14:29:56;2.70;;;1.00;;
65757;SDS011;52495;52.208;5.158;2023-04-12T14:32:24;5.32;;;1.40;;
65757;SDS011;52495;52.208;5.158;2023-04-12T14:34:51;4.35;;;1.27;;
65757;SDS011;52495;52.208;5.158;2023-04-12T14:37:18;4.07;;;1.35;;
65757;SDS011;52495;52.208;5.158;2023-04-12T14:39:44;3.15;;;1.05;;
65757;SDS011;52495;52.208;5.158;2023-04-12T14:42:11;4.35;;;1.17;;
65757;SDS011;52495;52.208;5.158;2023-04-12T14:44:38;3.03;;;1.00;;
65757;SDS011;52495;52.208;5.158;2023-04-12T14:47:05;3.40;;;0.90;;
65757;SDS011;52495;52.208;5.158;2023-04-12T14:49:33;4.53;;;1.02;;
65757;SDS011;52495;52.208;5.158;2023-04-12T14:52:00;6.55;;;1.52;;
65757;SDS011;52495;52.208;5.158;2023-04-12T14:54:26;5.03;;;1.30;;
65757;SDS011;52495;52.208;5.158;2023-04-12T14:56:53;4.03;;;1.20;;
65757;SDS011;52495;52.208;5.158;2023-04-12T14:59:20;5.00;;;1.50;;
65757;SDS011;52495;52.208;5.158;2023-04-12T15:01:47;3.83;;;0.90;;